Time;durP1;ratioP1;P1;durP2;ratioP2;P2;SDS_P1;SDS_P2;PMS_P1;PMS_P2;Temp;Humidity;BMP_temperature;BMP_pressure;BME280_temperature;BME280_humidity;BME280_pressure;Samples;Min_cycle;Max_cycle;Signal;HPM_P1;HPM_P2
2023/01/22 00:02:17;;;;;;;4.40;4.00;;;;;;;;;;5035825;28;20210;-82
2023/01/22 00:04:43;;;;;;;4.45;3.83;;;2.00;99.90;;;;;;5026524;28;20224;-84
2023/01/22 00:07:11;;;;;;;5.78;4.57;;;;;;;;;;5024335;28;20567;-83
2023/01/22 00:09:40;;;;;;;4.10;3.67;;;1.80;99.90;;;;;;5024206;28;20236;-85
2023/01/22 00:12:07;;;;;;;4.13;3.45;;;;;;;;;;5028389;28;20212;-83
2023/01/22 00:14:34;;;;;;;4.03;3.67;;;;;;;;;;5028134;28;20197;-82
2023/01/22 00:17:01;;;;;;;5.63;5.03;;;2.10;99.90;;;;;;5031376;28;20224;-82
2023/01/22 00:19:29;;;;;;;7.32;4.00;;;;;;;;;;5032509;28;20259;-83
2023/01/22 00:21:56;;;;;;;5.05;3.78;;;;;;;;;;5022377;28;20571;-83
2023/01/22 00:24:22;;;;;;;7.25;4.40;;;1.70;99.90;;;;;;5021026;28;20287;-83
2023/01/22 00:26:51;;;;;;;5.47;4.60;;;2.10;99.90;;;;;;5021176;28;20291;-82
2023/01/22 00:29:17;;;;;;;8.07;5.10;;;1.50;99.90;;;;;;5021820;28;20304;-83
2023/01/22 00:31:44;;;;;;;5.32;3.92;;;1.90;99.90;;;;;;5034242;28;20196;-82
2023/01/22 00:34:11;;;;;;;9.73;5.25;;;1.90;99.90;;;;;;5036203;28;20243;-82
2023/01/22 00:36:40;;;;;;;8.38;4.65;;;2.10;99.90;;;;;;5033714;28;20572;-84
2023/01/22 00:39:08;;;;;;;4.90;4.15;;;1.10;99.90;;;;;;5025409;28;20269;-82
2023/01/22 00:41:35;;;;;;;5.80;4.90;;;1.60;99.90;;;;;;5033450;28;20192;-83
2023/01/22 00:44:03;;;;;;;4.95;4.50;;;1.40;99.90;;;;;;5038962;28;20224;-80
2023/01/22 00:46:31;;;;;;;8.70;4.60;;;;;;;;;;5027622;28;20284;-83
2023/01/22 00:48:58;;;;;;;6.03;5.03;;;2.20;99.90;;;;;;5018963;28;20224;-83
2023/01/22 00:51:25;;;;;;;5.47;4.57;;;1.60;99.90;;;;;;5018669;28;20205;-83
2023/01/22 00:53:52;;;;;;;6.30;5.43;;;;;;;;;;5019327;28;20303;-83
2023/01/22 00:56:19;;;;;;;5.88;4.55;;;2.10;99.90;;;;;;5020589;28;20189;-83
2023/01/22 00:58:46;;;;;;;6.18;5.03;;;;;;;;;;5022095;28;20650;-82
2023/01/22 01:01:15;;;;;;;8.50;5.05;;;1.50;99.90;;;;;;5022321;28;20214;-83
2023/01/22 01:03:42;;;;;;;5.78;4.60;;;1.80;99.90;;;;;;5020615;28;20577;-84
2023/01/22 01:06:13;;;;;;;7.25;6.00;;;2.20;99.90;;;;;;5020924;28;20242;-83
2023/01/22 01:08:42;;;;;;;6.43;5.10;;;2.00;99.90;;;;;;5025097;28;20193;-82
2023/01/22 01:11:12;;;;;;;6.05;4.75;;;1.80;99.90;;;;;;5028873;28;20277;-83
2023/01/22 01:13:41;;;;;;;7.43;5.10;;;1.90;99.90;;;;;;5028202;28;20189;-83
2023/01/22 01:16:11;;;;;;;8.25;5.18;;;1.90;99.90;;;;;;5028581;28;20204;-83
2023/01/22 01:18:39;;;;;;;8.07;5.00;;;1.70;99.90;;;;;;5025560;28;20211;-83
2023/01/22 01:21:07;;;;;;;8.07;6.55;;;1.60;99.90;;;;;;5022624;28;20705;-83
2023/01/22 01:23:34;;;;;;;6.35;5.38;;;1.60;99.90;;;;;;5021869;28;20211;-82
2023/01/22 01:26:05;;;;;;;8.40;5.10;;;1.80;99.90;;;;;;5020393;28;20232;-82
2023/01/22 01:28:32;;;;;;;6.47;4.57;;;2.10;99.90;;;;;;5021060;28;20397;-82
2023/01/22 01:31:02;;;;;;;7.68;5.35;;;2.60;99.90;;;;;;5022087;28;20251;-82
2023/01/22 01:33:29;;;;;;;5.85;5.10;;;;;;;;;;5021023;28;20192;-82
2023/01/22 01:36:02;;;;;;;7.68;4.82;;;1.80;99.90;;;;;;5022622;28;20200;-82
2023/01/22 01:38:29;;;;;;;6.70;6.03;;;1.40;99.90;;;;;;5025987;28;20205;-81
2023/01/22 01:40:56;;;;;;;10.10;6.90;;;2.10;99.90;;;;;;5025118;28;20207;-82
2023/01/22 01:43:23;;;;;;;6.88;4.38;;;1.60;99.90;;;;;;5031176;28;20278;-82
2023/01/22 01:45:50;;;;;;;5.35;4.82;;;1.60;99.90;;;;;;5032166;28;20307;-82
2023/01/22 01:48:30;;;;;;;6.22;4.55;;;1.90;99.90;;;;;;5027558;28;20212;-82
2023/01/22 01:51:04;;;;;;;12.95;6.03;;;1.90;99.90;;;;;;5021950;28;20199;-84
2023/01/22 01:53:32;;;;;;;8.20;5.38;;;1.90;99.90;;;;;;5021136;28;20198;-84
2023/01/22 01:56:02;;;;;;;10.38;4.70;;;1.70;99.90;;;;;;5019784;28;20287;-83
2023/01/22 01:58:33;;;;;;;6.32;4.47;;;2.20;99.90;;;;;;5020091;28;20263;-82
2023/01/22 02:01:05;;;;;;;6.95;5.75;;;1.80;99.90;;;;;;5020496;28;20216;-84
2023/01/22 02:03:32;;;;;;;6.78;5.15;;;;;;;;;;5020185;28;20575;-82
2023/01/22 02:06:01;;;;;;;11.40;6.40;;;1.60;99.90;;;;;;5019930;28;20312;-82
2023/01/22 02:08:28;;;;;;;7.30;4.50;;;1.70;99.90;;;;;;5020470;28;20209;-82
2023/01/22 02:10:55;;;;;;;5.90;5.07;;;;;;;;;;5019938;28;20634;-82
2023/01/22 02:13:26;;;;;;;8.65;5.32;;;1.80;99.90;;;;;;5019959;28;20231;-84
2023/01/22 02:15:53;;;;;;;5.70;4.35;;;1.60;99.90;;;;;;5019657;28;20647;-83
2023/01/22 02:18:20;;;;;;;5.05;4.55;;;1.80;99.90;;;;;;5034125;28;20301;-82
2023/01/22 02:20:54;;;;;;;6.30;5.35;;;1.90;99.90;;;;;;5038152;28;20225;-82
2023/01/22 02:23:21;;;;;;;8.00;4.65;;;1.60;99.90;;;;;;5034007;28;20224;-83
2023/01/22 02:25:48;;;;;;;5.95;5.35;;;2.00;99.90;;;;;;5025502;28;20251;-84
2023/01/22 02:28:15;;;;;;;6.90;4.72;;;;;;;;;;5024115;28;20264;-83
2023/01/22 02:30:43;;;;;;;4.85;4.45;;;2.00;99.90;;;;;;5021297;28;20323;-83
2023/01/22 02:33:10;;;;;;;4.40;3.60;;;1.80;99.90;;;;;;5024940;28;20204;-83
2023/01/22 02:35:37;;;;;;;4.75;4.30;;;2.00;99.90;;;;;;5024135;28;20747;-83
2023/01/22 02:38:06;;;;;;;5.55;4.38;;;1.70;99.90;;;;;;5022278;28;20295;-83
2023/01/22 02:40:33;;;;;;;4.03;3.72;;;2.10;99.90;;;;;;5021315;28;20226;-83
2023/01/22 02:43:00;;;;;;;5.05;4.43;;;2.10;99.90;;;;;;5020573;28;20204;-83
2023/01/22 02:45:27;;;;;;;6.90;5.82;;;2.30;99.90;;;;;;5023408;28;20224;-83
2023/01/22 02:47:54;;;;;;;5.07;4.60;;;1.80;99.90;;;;;;5023223;28;20215;-83
2023/01/22 02:50:21;;;;;;;4.72;4.28;;;;;;;;;;5022715;28;20228;-83
2023/01/22 02:52:48;;;;;;;4.40;4.00;;;1.70;99.90;;;;;;5023346;28;20272;-83
2023/01/22 02:55:16;;;;;;;6.05;5.45;;;2.10;99.90;;;;;;5022591;28;20293;-83
2023/01/22 02:57:43;;;;;;;4.88;4.38;;;1.90;99.90;;;;;;5022947;28;20205;-83
2023/01/22 03:00:11;;;;;;;4.75;4.35;;;1.90;99.90;;;;;;5022321;28;20220;-82
2023/01/22 03:02:38;;;;;;;7.22;4.82;;;2.20;99.90;;;;;;5021670;28;20703;-83
2023/01/22 03:05:05;;;;;;;4.72;4.32;;;1.60;99.90;;;;;;5021832;28;20220;-83
2023/01/22 03:07:40;;;;;;;4.53;4.13;;;1.60;99.90;;;;;;5022331;28;20208;-83
2023/01/22 03:10:10;;;;;;;4.80;4.40;;;2.00;99.90;;;;;;5022985;28;20224;-83
2023/01/22 03:23:36;;;;;;;3.92;3.63;;;2.00;99.90;;;;;;5030865;28;20184;-83
2023/01/22 03:26:03;;;;;;;4.72;3.95;;;;;;;;;;5033848;28;20232;-83
2023/01/22 03:28:31;;;;;;;3.42;3.13;;;1.90;99.90;;;;;;5028794;28;20240;-83
2023/01/22 03:30:58;;;;;;;5.28;3.75;;;1.90;99.90;;;;;;5032385;28;20211;-83
2023/01/22 03:33:25;;;;;;;5.30;4.60;;;1.90;99.90;;;;;;5031149;28;20229;-83
2023/01/22 03:35:52;;;;;;;5.57;3.97;;;;;;;;;;5034933;28;20203;-83
2023/01/22 03:38:20;;;;;;;3.88;3.58;;;;;;;;;;5035590;28;20211;-83
2023/01/22 03:40:46;;;;;;;3.58;3.28;;;1.60;99.90;;;;;;5032649;28;20248;-83
2023/01/22 03:43:13;;;;;;;3.58;3.38;;;1.90;99.90;;;;;;5032547;28;20239;-83
2023/01/22 03:45:41;;;;;;;7.00;3.83;;;1.60;99.90;;;;;;5032434;28;20251;-83
2023/01/22 03:48:08;;;;;;;4.53;3.88;;;;;;;;;;5035380;28;20208;-83
2023/01/22 03:50:35;;;;;;;4.78;3.90;;;2.10;99.90;;;;;;5040511;28;20276;-83
2023/01/22 03:53:03;;;;;;;4.30;3.88;;;1.60;99.90;;;;;;5040634;28;20247;-82
2023/01/22 03:55:30;;;;;;;5.40;3.53;;;2.00;99.90;;;;;;5034892;28;20594;-83
2023/01/22 03:57:57;;;;;;;4.40;3.70;;;1.50;99.90;;;;;;5018931;28;20205;-83
2023/01/22 04:00:25;;;;;;;6.57;3.80;;;;;;;;;;5022179;28;20636;-84
2023/01/22 04:02:54;;;;;;;4.40;3.65;;;1.60;99.90;;;;;;5026195;28;20296;-83
2023/01/22 04:05:21;;;;;;;4.13;3.70;;;2.20;99.90;;;;;;5020397;28;20227;-83
2023/01/22 04:07:49;;;;;;;5.13;4.13;;;1.90;61.50;;;;;;5018195;28;20295;-83
2023/01/22 04:10:17;;;;;;;5.00;4.30;;;1.70;99.90;;;;;;5018053;28;20316;-84
2023/01/22 04:12:44;;;;;;;4.80;4.40;;;1.60;99.90;;;;;;5019357;28;20213;-83
2023/01/22 04:15:11;;;;;;;4.63;4.00;;;1.60;99.90;;;;;;5019336;28;20292;-83
2023/01/22 04:17:38;;;;;;;4.55;4.15;;;;;;;;;;5020735;28;20204;-83
2023/01/22 04:20:08;;;;;;;4.68;4.20;;;1.80;44.40;;;;;;5021171;28;20228;-83
2023/01/22 04:22:35;;;;;;;7.15;4.18;;;;;;;;;;5021660;28;20211;-83
2023/01/22 04:25:01;;;;;;;5.28;4.78;;;1.80;99.90;;;;;;5021082;28;20750;-83
2023/01/22 04:27:29;;;;;;;6.15;4.90;;;;;;;;;;5022005;28;20219;-83
2023/01/22 04:29:55;;;;;;;4.85;4.43;;;2.00;99.90;;;;;;5020974;28;20323;-83
2023/01/22 04:32:22;;;;;;;4.68;4.18;;;1.70;99.90;;;;;;5022005;28;20204;-84
2023/01/22 04:34:49;;;;;;;6.68;4.85;;;1.60;32.10;;;;;;5022025;28;20631;-83
2023/01/22 04:37:17;;;;;;;5.00;4.60;;;1.90;23.10;;;;;;5023285;28;20201;-84
2023/01/22 04:39:44;;;;;;;5.43;4.93;;;;;;;;;;5023200;28;20224;-83
2023/01/22 04:42:11;;;;;;;6.18;5.57;;;2.20;99.90;;;;;;5024104;28;20276;-83
2023/01/22 04:44:38;;;;;;;5.35;4.90;;;1.90;99.90;;;;;;5023675;28;20208;-83
2023/01/22 04:47:05;;;;;;;4.90;4.50;;;1.90;99.90;;;;;;5024085;28;20220;-83
2023/01/22 04:49:32;;;;;;;4.60;4.20;;;1.60;99.90;;;;;;5023807;28;20243;-83
2023/01/22 04:51:59;;;;;;;5.57;4.53;;;1.60;16.80;;;;;;5023197;28;20323;-83
2023/01/22 04:54:27;;;;;;;6.05;4.95;;;;;;;;;;5022645;28;20209;-83
2023/01/22 04:56:54;;;;;;;5.18;4.68;;;1.80;99.90;;;;;;5022887;28;20211;-83
2023/01/22 04:59:21;;;;;;;5.07;4.68;;;;;;;;;;5022827;28;20315;-83
2023/01/22 05:01:49;;;;;;;6.07;5.47;;;2.20;99.90;;;;;;5022711;28;20261;-83
2023/01/22 05:04:16;;;;;;;7.07;5.60;;;1.50;99.90;;;;;;5022353;28;20594;-83
2023/01/22 05:06:43;;;;;;;5.93;4.88;;;1.50;99.90;;;;;;5021922;28;20255;-83
2023/01/22 05:09:10;;;;;;;5.70;4.75;;;;;;;;;;5029196;28;20284;-81
2023/01/22 05:11:38;;;;;;;6.53;5.38;;;2.00;99.90;;;;;;5017436;28;20295;-82
2023/01/22 05:14:06;;;;;;;9.32;6.95;;;1.80;31.60;;;;;;5017430;28;20675;-84
2023/01/22 05:16:33;;;;;;;5.50;5.00;;;1.60;99.90;;;;;;5018252;28;20207;-84
2023/01/22 05:19:00;;;;;;;7.18;5.18;;;1.90;99.90;;;;;;5019826;28;20244;-83
2023/01/22 05:21:27;;;;;;;6.35;5.85;;;;;;;;;;5036010;28;20211;-83
2023/01/22 05:23:54;;;;;;;7.32;5.68;;;;;;;;;;5024103;28;20544;-84
2023/01/22 05:26:21;;;;;;;6.93;5.72;;;;;;;;;;5021767;28;20224;-84
2023/01/22 05:28:48;;;;;;;7.20;6.15;;;;;;;;;;5055335;22;20224;31
2023/01/22 05:31:16;;;;;;;6.40;5.40;;;1.50;91.10;;;;;;5026494;28;20228;-83
2023/01/22 05:33:43;;;;;;;6.78;5.88;;;2.10;99.90;;;;;;5026023;28;20200;-83
2023/01/22 05:36:12;;;;;;;9.48;5.75;;;1.80;56.00;;;;;;5032691;28;20287;-80
2023/01/22 05:38:39;;;;;;;6.30;5.70;;;2.00;99.90;;;;;;5033465;28;20209;-83
2023/01/22 05:41:06;;;;;;;8.05;6.53;;;1.70;68.30;;;;;;5026668;28;20692;-82
2023/01/22 05:43:33;;;;;;;7.50;6.18;;;2.00;98.90;;;;;;5024914;28;20236;-82
2023/01/22 05:46:00;;;;;;;8.82;6.68;;;0.50;99.90;;;;;;5024395;28;20562;-83
2023/01/22 05:48:28;;;;;;;6.82;5.78;;;1.80;99.90;;;;;;5024504;28;20557;-82
2023/01/22 05:50:55;;;;;;;7.85;6.47;;;1.20;99.90;;;;;;5023481;28;20652;-82
2023/01/22 05:53:22;;;;;;;6.80;6.05;;;;;;;;;;5024594;28;20201;-82
2023/01/22 05:55:49;;;;;;;11.65;5.90;;;2.00;99.90;;;;;;5024298;28;20717;-83
2023/01/22 05:58:16;;;;;;;8.57;6.93;;;2.00;99.90;;;;;;5032383;28;20248;-81
2023/01/22 06:00:43;;;;;;;8.77;7.18;;;1.90;99.90;;;;;;5034098;28;20236;-81
2023/01/22 06:03:10;;;;;;;7.63;6.93;;;;;;;;;;5033122;28;20228;-83
2023/01/22 06:05:38;;;;;;;8.88;6.85;;;1.70;99.90;;;;;;5032797;28;20336;-82
2023/01/22 06:08:05;;;;;;;8.85;7.95;;;2.10;99.90;;;;;;5033107;28;20210;-81
2023/01/22 06:10:32;;;;;;;10.70;7.50;;;1.50;99.90;;;;;;5033520;28;20283;-82
2023/01/22 06:13:00;;;;;;;9.13;6.88;;;1.60;99.90;;;;;;5031402;28;20246;-82
2023/01/22 06:15:27;;;;;;;8.57;7.65;;;1.20;99.90;;;;;;5028815;28;20227;-82
2023/01/22 06:17:54;;;;;;;9.82;7.70;;;1.50;99.90;;;;;;5025436;28;20200;-83
2023/01/22 06:20:21;;;;;;;7.82;6.97;;;;;;;;;;5028819;28;20254;-83
2023/01/22 06:22:52;;;;;;;9.05;7.40;;;1.50;99.90;;;;;;5036043;28;20224;-82
2023/01/22 06:25:19;;;;;;;10.50;7.05;;;;;;;;;;5034114;28;20220;-83
2023/01/22 06:27:46;;;;;;;8.10;6.65;;;1.40;99.90;;;;;;5038433;28;20228;-80
2023/01/22 06:30:13;;;;;;;11.18;7.90;;;1.50;99.90;;;;;;5041795;28;20213;-80
2023/01/22 06:32:40;;;;;;;7.93;7.13;;;1.90;99.90;;;;;;5030401;28;20216;-83
2023/01/22 06:35:08;;;;;;;14.75;7.85;;;1.80;99.90;;;;;;5031022;28;20259;-81
2023/01/22 06:37:34;;;;;;;11.00;8.55;;;1.40;99.90;;;;;;5039496;28;20228;-80
2023/01/22 06:40:03;;;;;;;10.23;7.88;;;1.90;99.90;;;;;;5038731;28;20251;-80
2023/01/22 06:42:30;;;;;;;8.05;7.07;;;;;;;;;;5037642;28;20642;-84
2023/01/22 06:44:57;;;;;;;8.60;7.18;;;2.00;99.90;;;;;;5035233;28;20200;-81
2023/01/22 06:47:24;;;;;;;9.02;7.28;;;1.40;99.90;;;;;;5037992;28;20236;-81
2023/01/22 06:49:50;;;;;;;10.82;8.18;;;1.50;99.90;;;;;;5038356;28;20304;-81
2023/01/22 06:52:17;;;;;;;11.18;8.55;;;1.80;99.90;;;;;;5038064;28;20239;-81
2023/01/22 06:54:44;;;;;;;10.45;8.35;;;;;;;;;;5037585;28;20268;-83
2023/01/22 06:57:12;;;;;;;10.80;7.43;;;1.80;99.90;;;;;;5032782;28;20216;-83
2023/01/22 06:59:39;;;;;;;10.95;8.10;;;1.80;99.90;;;;;;5029159;28;20264;-83
2023/01/22 07:02:07;;;;;;;10.50;7.50;;;1.70;99.90;;;;;;5036298;28;20311;-83
2023/01/22 07:04:33;;;;;;;11.65;7.75;;;0.70;99.90;;;;;;5038354;28;20212;-81
2023/01/22 07:07:00;;;;;;;10.75;8.30;;;;;;;;;;5036272;28;20220;-82
2023/01/22 07:09:27;;;;;;;12.45;6.82;;;2.00;99.90;;;;;;5036115;28;20259;-84
2023/01/22 07:11:56;;;;;;;9.98;7.82;;;;;;;;;;5032779;28;20739;-84
2023/01/22 07:14:24;;;;;;;10.05;7.80;;;1.40;99.90;;;;;;5029208;28;20200;-84
2023/01/22 07:16:51;;;;;;;11.20;8.25;;;1.40;99.90;;;;;;5027986;28;20264;-84
2023/01/22 07:19:18;;;;;;;14.48;9.55;;;1.70;99.90;;;;;;5033225;28;20283;-84
2023/01/22 07:21:45;;;;;;;11.82;8.52;;;;;;;;;;5039501;28;20227;-83
2023/01/22 07:24:12;;;;;;;13.15;8.98;;;2.10;99.90;;;;;;5039330;28;20268;-85
2023/01/22 07:26:39;;;;;;;12.35;8.40;;;;;;;;;;5035228;28;20284;-81
2023/01/22 07:29:06;;;;;;;10.02;8.77;;;;;;;;;;5035267;28;20295;-85
2023/01/22 07:31:34;;;;;;;9.75;8.35;;;1.80;99.90;;;;;;5035305;28;20265;-83
2023/01/22 07:34:02;;;;;;;11.13;8.80;;;1.80;99.90;;;;;;5034244;28;20243;-83
2023/01/22 07:36:29;;;;;;;10.73;8.73;;;1.70;99.90;;;;;;5029990;28;20260;-83
2023/01/22 07:38:56;;;;;;;14.02;8.38;;;2.20;99.90;;;;;;5033862;28;20264;-85
2023/01/22 07:41:22;;;;;;;10.38;7.90;;;2.00;99.90;;;;;;5033519;28;20204;-83
2023/01/22 07:43:51;;;;;;;10.93;9.30;;;;;;;;;;5033743;28;20268;-83
2023/01/22 07:46:18;;;;;;;11.57;8.30;;;;;;;;;;5033940;28;20201;-82
2023/01/22 07:48:47;;;;;;;10.32;7.97;;;;;;;;;;5037422;28;20216;-80
2023/01/22 07:51:14;;;;;;;12.30;9.10;;;;;;;;;;5036692;28;20236;-82
2023/01/22 07:53:41;;;;;;;8.75;7.38;;;1.80;99.90;;;;;;5037052;28;20264;-81
2023/01/22 07:56:08;;;;;;;9.02;7.57;;;1.50;99.90;;;;;;5034973;28;20205;-81
2023/01/22 07:58:35;;;;;;;10.82;7.50;;;1.90;46.70;;;;;;5035467;28;20219;-81
2023/01/22 08:01:05;;;;;;;8.00;7.00;;;0.80;43.00;;;;;;5035278;28;20256;-80
2023/01/22 08:03:32;;;;;;;10.50;7.70;;;2.10;99.90;;;;;;5035205;28;20244;-82
2023/01/22 08:06:01;;;;;;;10.30;7.38;;;1.90;31.50;;;;;;5032354;28;20212;-83
2023/01/22 08:08:28;;;;;;;6.97;6.28;;;;;;;;;;5031463;28;20311;-82
2023/01/22 08:10:58;;;;;;;8.13;6.25;;;1.70;64.30;;;;;;5029261;28;20224;-83
2023/01/22 08:13:25;;;;;;;12.45;7.32;;;1.60;66.40;;;;;;5032917;28;20275;-83
2023/01/22 08:15:53;;;;;;;12.60;7.80;;;;;;;;;;5033216;28;20415;-81
2023/01/22 08:18:20;;;;;;;10.27;7.53;;;1.70;99.90;;;;;;5035693;28;20209;-82
2023/01/22 08:20:48;;;;;;;9.05;6.70;;;;;;;;;;5033019;28;20235;-83
2023/01/22 08:23:16;;;;;;;9.02;6.95;;;2.00;49.80;;;;;;5036711;28;20232;-82
2023/01/22 08:25:43;;;;;;;8.77;6.82;;;2.40;99.90;;;;;;5037807;28;20276;-81
2023/01/22 08:28:10;;;;;;;9.88;6.68;;;1.90;99.90;;;;;;5037745;28;20243;-82
2023/01/22 08:30:37;;;;;;;10.38;7.22;;;;;;;;;;5037432;28;20216;-80
2023/01/22 08:33:04;;;;;;;11.00;7.82;;;;;;;;;;5037722;28;20184;-81
2023/01/22 08:35:31;;;;;;;8.35;6.80;;;2.20;24.80;;;;;;5035755;28;20216;-84
2023/01/22 08:37:58;;;;;;;9.82;6.95;;;2.00;11.50;;;;;;5033667;28;20201;-83
2023/01/22 08:40:27;;;;;;;9.30;7.05;;;2.00;13.40;;;;;;5033506;28;20228;-82
2023/01/22 08:42:56;;;;;;;11.70;6.97;;;2.00;8.80;;;;;;5034504;28;20239;-81
2023/01/22 08:45:23;;;;;;;9.32;7.15;;;;;;;;;;5031903;28;20291;-84
2023/01/22 08:47:51;;;;;;;10.98;7.82;;;;;;;;;;5031420;28;20252;-84
2023/01/22 08:50:18;;;;;;;10.77;7.30;;;2.10;99.90;;;;;;5030102;28;20234;-84
2023/01/22 08:52:45;;;;;;;8.15;6.40;;;;;;;;;;5031343;28;20212;-83
2023/01/22 08:55:12;;;;;;;11.60;7.70;;;;;;;;;;5030299;28;20276;-83
2023/01/22 08:57:41;;;;;;;10.57;7.57;;;;;;;;;;5030093;28;20203;-80
2023/01/22 09:00:10;;;;;;;8.88;6.75;;;;;;;;;;5032174;28;20248;-83
2023/01/22 09:02:37;;;;;;;9.02;6.93;;;;;;;;;;5032210;28;20200;-84
2023/01/22 09:05:04;;;;;;;9.05;7.55;;;;;;;;;;5030174;28;20205;-83
2023/01/22 09:07:31;;;;;;;8.23;6.78;;;;;;;;;;5028556;28;20252;-83
2023/01/22 09:09:59;;;;;;;11.77;8.32;;;;;;;;;;5029355;28;20232;-83
2023/01/22 09:12:27;;;;;;;11.43;8.48;;;1.90;99.90;;;;;;5030958;28;20215;-83
2023/01/22 09:14:56;;;;;;;14.55;8.90;;;;;;;;;;5029829;28;20247;-82
2023/01/22 09:17:25;;;;;;;13.43;8.70;;;;;;;;;;5030813;28;20203;-85
2023/01/22 09:19:51;;;;;;;10.75;8.45;;;2.00;99.90;;;;;;5029835;28;20238;-83
2023/01/22 09:22:19;;;;;;;9.32;7.55;;;1.80;99.90;;;;;;5030007;28;20747;-84
2023/01/22 09:24:46;;;;;;;10.55;8.27;;;;;;;;;;5029254;28;20232;-84
2023/01/22 09:27:13;;;;;;;16.15;9.95;;;2.30;99.30;;;;;;5030230;28;20283;-85
2023/01/22 09:29:40;;;;;;;10.35;8.10;;;2.00;97.50;;;;;;5028860;28;20236;-86
2023/01/22 09:32:08;;;;;;;11.55;9.02;;;1.80;1.00;;;;;;5028066;28;20200;-84
2023/01/22 09:34:35;;;;;;;8.82;7.60;;;;;;;;;;5035290;28;20223;-82
2023/01/22 09:37:06;;;;;;;11.35;10.18;;;1.90;71.00;;;;;;5037451;28;20215;-80
2023/01/22 09:39:33;;;;;;;10.98;8.10;;;;;;;;;;5037921;28;20224;-82
2023/01/22 09:42:03;;;;;;;8.35;7.13;;;2.10;59.40;;;;;;5032293;28;20208;-84
2023/01/22 09:44:34;;;;;;;10.38;8.10;;;2.20;1.00;;;;;;5030151;28;20193;-84
2023/01/22 09:47:04;;;;;;;10.57;8.45;;;2.30;62.20;;;;;;5027342;28;20721;-84
2023/01/22 09:49:38;;;;;;;8.82;7.32;;;2.10;1.00;;;;;;5025768;28;20315;-83
2023/01/22 09:52:06;;;;;;;12.65;8.93;;;2.40;56.50;;;;;;5025802;28;20196;-85
2023/01/22 09:54:33;;;;;;;12.13;8.80;;;;;;;;;;5025710;28;20212;-85
2023/01/22 09:57:04;;;;;;;11.73;8.50;;;2.20;64.60;;;;;;5027946;28;20211;-82
2023/01/22 09:59:37;;;;;;;10.70;8.63;;;3.70;1.00;;;;;;5027496;28;20235;-83
2023/01/22 10:02:19;;;;;;;12.38;8.73;;;2.20;1.00;;;;;;5027020;28;20248;-84
2023/01/22 10:04:52;;;;;;;11.63;9.30;;;2.20;1.00;;;;;;5027827;28;20192;-85
2023/01/22 10:07:24;;;;;;;11.57;8.35;;;2.00;1.00;;;;;;5026141;28;20250;-83
2023/01/22 10:09:54;;;;;;;15.48;9.20;;;2.20;1.00;;;;;;5027192;28;20292;-83
2023/01/22 10:12:21;;;;;;;13.43;9.55;;;;;;;;;;5027082;28;20185;-84
2023/01/22 10:14:50;;;;;;;15.50;8.55;;;2.20;1.00;;;;;;5028336;28;20272;-84
2023/01/22 10:17:22;;;;;;;13.52;8.55;;;2.30;36.40;;;;;;5029799;28;20264;-85
2023/01/22 10:19:56;;;;;;;13.13;9.48;;;2.20;1.00;;;;;;5028633;28;20291;-85
2023/01/22 10:22:25;;;;;;;10.73;9.45;;;2.20;96.30;;;;;;5029010;28;20252;-83
2023/01/22 10:24:53;;;;;;;11.15;8.40;;;2.20;99.90;;;;;;5026159;28;20239;-84
2023/01/22 10:27:22;;;;;;;11.57;7.82;;;2.10;1.00;;;;;;5028632;28;20290;-83
2023/01/22 10:29:59;;;;;;;11.90;9.15;;;2.70;1.00;;;;;;5026403;28;20296;-83
2023/01/22 10:32:27;;;;;;;12.70;9.10;;;2.20;1.00;;;;;;5027239;28;20189;-84
2023/01/22 10:35:02;;;;;;;10.23;8.77;;;2.30;1.00;;;;;;5029222;28;20204;-82
2023/01/22 10:37:29;;;;;;;11.00;9.55;;;;;;;;;;5034716;28;20244;-84
2023/01/22 10:39:58;;;;;;;15.32;10.43;;;2.30;1.00;;;;;;5034467;28;20225;-83
2023/01/22 10:42:27;;;;;;;11.45;8.73;;;2.30;1.00;;;;;;5036208;28;20196;-85
2023/01/22 10:44:56;;;;;;;15.95;10.50;;;2.30;1.00;;;;;;5036152;28;20268;-83
2023/01/22 10:47:26;;;;;;;11.60;9.32;;;2.30;1.00;;;;;;5031600;28;20221;-83
2023/01/22 10:50:04;;;;;;;20.17;13.32;;;2.40;5.10;;;;;;5028635;28;20288;-84
2023/01/22 10:52:35;;;;;;;10.77;8.98;;;2.30;1.00;;;;;;5028969;28;20666;-83
2023/01/22 10:55:03;;;;;;;11.68;9.05;;;3.20;99.90;;;;;;5028384;28;20227;-85
2023/01/22 10:57:32;;;;;;;10.05;8.43;;;2.60;99.90;;;;;;5027565;28;20200;-82
2023/01/22 11:00:08;;;;;;;14.25;9.90;;;2.60;99.90;;;;;;5027030;28;20248;-84
2023/01/22 11:02:36;;;;;;;12.23;8.73;;;2.30;1.00;;;;;;5028298;28;20686;-84
2023/01/22 11:05:17;;;;;;;13.55;9.50;;;2.30;1.00;;;;;;5029447;28;20220;-84
2023/01/22 11:07:45;;;;;;;18.08;10.50;;;2.60;99.90;;;;;;5032473;28;20256;-85
2023/01/22 11:10:19;;;;;;;13.50;10.00;;;2.10;99.90;;;;;;5025429;28;20232;-84
2023/01/22 11:12:50;;;;;;;12.10;9.35;;;2.60;1.00;;;;;;5025792;28;20261;-83
2023/01/22 11:15:22;;;;;;;12.38;9.35;;;2.40;99.90;;;;;;5028334;28;20189;-84
2023/01/22 11:17:52;;;;;;;14.40;9.07;;;2.10;99.90;;;;;;5029466;28;20188;-83
2023/01/22 11:20:25;;;;;;;11.75;9.10;;;2.60;1.00;;;;;;5028489;28;20774;-85
2023/01/22 11:23:03;;;;;;;13.80;9.63;;;2.40;1.00;;;;;;5030890;28;20279;-82
2023/01/22 11:25:39;;;;;;;12.75;9.13;;;2.40;1.00;;;;;;5031164;28;20185;-84
2023/01/22 11:28:17;;;;;;;12.68;8.80;;;2.30;99.90;;;;;;5031002;28;20276;-85
2023/01/22 11:31:03;;;;;;;13.50;9.30;;;2.40;1.00;;;;;;5040793;22;20244;-84
2023/01/22 11:34:10;;;;;;;14.80;9.82;;;2.50;1.00;;;;;;5025087;28;20248;-83
2023/01/22 11:36:45;;;;;;;9.95;8.40;;;2.50;1.00;;;;;;5000749;28;20207;-83
2023/01/22 11:39:21;;;;;;;12.52;8.68;;;2.60;1.00;;;;;;5024205;28;20184;-83
2023/01/22 11:41:59;;;;;;;12.38;9.95;;;2.60;1.00;;;;;;5029882;28;20192;-85
2023/01/22 11:44:41;;;;;;;10.35;8.90;;;2.70;18.30;;;;;;5027511;28;20432;-85
2023/01/22 11:47:29;;;;;;;12.27;8.75;;;2.20;7.50;;;;;;5029592;28;20191;-84
2023/01/22 11:50:14;;;;;;;11.50;8.98;;;2.50;70.90;;;;;;5028901;28;20566;-84
2023/01/22 11:52:48;;;;;;;53.83;26.90;;;2.00;1.00;;;;;;5026775;28;20622;-84
2023/01/22 11:55:27;;;;;;;13.68;10.68;;;1.30;1.00;;;;;;5027603;28;20193;-85
2023/01/22 11:58:04;;;;;;;12.25;8.77;;;2.20;1.00;;;;;;5027035;28;20180;-84
2023/01/22 12:00:46;;;;;;;14.40;9.00;;;2.60;1.00;;;;;;5032629;28;20228;-83
2023/01/22 12:03:23;;;;;;;14.60;10.27;;;2.70;1.00;;;;;;5034827;28;20191;-83
2023/01/22 12:06:02;;;;;;;9.88;8.45;;;2.40;35.40;;;;;;5029445;28;20622;-83
2023/01/22 12:08:47;;;;;;;13.38;9.68;;;2.70;9.30;;;;;;5026197;28;20220;-84
2023/01/22 12:11:32;;;;;;;9.70;8.25;;;2.70;1.00;;;;;;5029002;28;20228;-83
2023/01/22 12:14:34;;;;;;;9.43;7.15;;;2.60;1.00;;;;;;5027158;28;20256;-84
2023/01/22 12:17:14;;;;;;;13.70;9.05;;;2.70;1.00;;;;;;5009889;28;20624;-84
2023/01/22 12:20:01;;;;;;;12.32;9.20;;;2.40;1.00;;;;;;5025624;28;20223;-83
2023/01/22 12:22:34;;;;;;;14.88;10.90;;;2.60;1.00;;;;;;5025194;28;20189;-83
2023/01/22 12:25:12;;;;;;;11.57;8.30;;;2.70;1.00;;;;;;5024549;28;20200;-83
2023/01/22 12:27:43;;;;;;;11.77;9.27;;;2.30;1.00;;;;;;5024600;28;20184;-84
2023/01/22 12:30:21;;;;;;;12.30;8.70;;;2.60;1.00;;;;;;5022650;28;20263;-85
2023/01/22 12:32:53;;;;;;;15.05;11.05;;;2.60;1.00;;;;;;5022544;28;20271;-84
2023/01/22 12:35:21;;;;;;;10.85;8.40;;;2.60;1.00;;;;;;5025762;28;20378;-83
2023/01/22 12:37:56;;;;;;;12.10;9.00;;;2.90;1.00;;;;;;5027309;28;20263;-83
2023/01/22 12:40:31;;;;;;;13.40;9.00;;;2.70;1.00;;;;;;5023454;28;20224;-85
2023/01/22 12:43:01;;;;;;;13.43;9.10;;;2.60;1.00;;;;;;5023499;28;20663;-83
2023/01/22 12:45:49;;;;;;;13.18;9.82;;;2.20;1.00;;;;;;5023145;28;20296;-83
2023/01/22 12:48:23;;;;;;;12.85;9.60;;;2.50;1.00;;;;;;5022880;28;20219;-84
2023/01/22 12:50:52;;;;;;;22.65;11.30;;;2.50;1.00;;;;;;5023766;28;20238;-84
2023/01/22 12:53:24;;;;;;;14.10;9.93;;;2.50;1.00;;;;;;5024581;28;20219;-83
2023/01/22 12:56:02;;;;;;;14.13;10.75;;;2.60;1.00;;;;;;5021201;28;20201;-83
2023/01/22 12:58:30;;;;;;;12.68;8.98;;;2.50;1.00;;;;;;5023495;28;20195;-84
2023/01/22 13:01:03;;;;;;;12.88;10.52;;;2.70;1.00;;;;;;5022136;28;20240;-84
2023/01/22 13:03:31;;;;;;;14.65;10.05;;;2.60;1.00;;;;;;5022313;28;20261;-83
2023/01/22 13:05:59;;;;;;;13.00;10.57;;;2.60;1.00;;;;;;5026788;28;20291;-84
2023/01/22 13:08:39;;;;;;;16.30;10.02;;;3.00;1.00;;;;;;5023121;28;20252;-84
2023/01/22 13:11:09;;;;;;;12.55;11.13;;;1.50;1.00;;;;;;5028362;28;20224;-83
2023/01/22 13:13:43;;;;;;;12.73;9.60;;;2.50;2.70;;;;;;5030892;28;20205;-84
2023/01/22 13:16:20;;;;;;;20.02;10.50;;;2.80;1.00;;;;;;5032011;28;20197;-84
2023/01/22 13:18:49;;;;;;;24.83;11.27;;;2.60;1.00;;;;;;5026856;28;20215;-83
2023/01/22 13:21:17;;;;;;;13.75;11.05;;;2.20;1.00;;;;;;5024254;28;20319;-84
2023/01/22 13:23:46;;;;;;;17.00;12.10;;;2.50;1.00;;;;;;5029161;28;20290;-83
2023/01/22 13:26:19;;;;;;;12.05;9.90;;;2.30;1.00;;;;;;5029071;28;20228;-83
2023/01/22 13:28:54;;;;;;;11.95;9.95;;;2.20;1.00;;;;;;5024467;28;20236;-84
2023/01/22 13:31:21;;;;;;;14.60;10.77;;;2.70;1.00;;;;;;5027159;28;20232;-84
2023/01/22 13:33:59;;;;;;;17.83;10.63;;;2.40;1.00;;;;;;5029584;28;20300;-83
2023/01/22 13:36:26;;;;;;;13.77;11.15;;;;;;;;;;5029119;28;20227;-84
2023/01/22 13:38:56;;;;;;;16.95;10.88;;;2.40;1.00;;;;;;5033501;28;20205;-83